M I D A S
Marine Information and Data Acquisition System
Tripno 444 of the Zeeleeuw from 2003-03-11 07:39:54 to 2003-03-11 13:04:54
Back to CruiseResearch ActivitiesStationsMapUnderway DataData graphs

EquipmentUnitsComments
TimeDGPSUTC
LatitudeDGPSDM.mWGS84
LongitudeDGPSDM.mWGS84
SpeedMeteo Stationm/sRelative wind speed
DirectionMeteo StationdegRelative wind direction
TemperatureMeteo Stationdeg CelciusAir temperature
PressureMeteo StationPaAtmospheric pressure
HumidityMeteo Station%Relative humidity
Missing or incorrect values are displayed as -999
Metereological data collected by the RV Zeeleeuw from 2003-03-11 07:39:54 to 2003-03-11 13:04:54
                                                                                    Next 1000 lines
Time Latitude Longitude Speed Direction Temperature Pressure Humidity
2003-03-11 07:40:04 51°13.592 2°56.102 2.9 217 10.3 101450 89
2003-03-11 07:40:08 51°13.592 2°56.101 2.9 192 10.3 101450 89
2003-03-11 07:40:14 51°13.592 2°56.1 2.6 221 10.3 101450 89
2003-03-11 07:40:19 51°13.592 2°56.099 4.4 207 10.3 101450 89
2003-03-11 07:40:24 51°13.592 2°56.097 5.1 221 10.3 101450 89
2003-03-11 07:40:28 51°13.593 2°56.094 4.4 134 10.3 101450 89
2003-03-11 07:40:34 51°13.594 2°56.089 4.3 205 10.3 101450 89
2003-03-11 07:40:39 51°13.595 2°56.083 4.8 223 10.3 101450 89
2003-03-11 07:40:44 51°13.596 2°56.077 5.5 205 10.3 101440 89
2003-03-11 07:40:50 51°13.599 2°56.068 8 214 10.3 101440 89
2003-03-11 07:40:54 51°13.601 2°56.062 6.5 229 10.3 101440 89
2003-03-11 07:41:00 51°13.603 2°56.052 5.3 221 10.3 101440 89
2003-03-11 07:41:04 51°13.605 2°56.045 6.1 218 10.3 101450 89
2003-03-11 07:41:10 51°13.607 2°56.034 6.8 206 10.3 101450 89
2003-03-11 07:41:14 51°13.609 2°56.026 6 135 10.3 101440 89
2003-03-11 07:41:20 51°13.612 2°56.015 5.6 216 10.3 101440 89
2003-03-11 07:41:24 51°13.614 2°56.007 4.7 208 10.3 101440 89
2003-03-11 07:41:30 51°13.618 2°55.994 3.7 213 10.3 101440 89
2003-03-11 07:41:34 51°13.62 2°55.986 3.9 210 10.3 101440 89
2003-03-11 07:41:40 51°13.624 2°55.973 4.1 224 10.3 101440 89
2003-03-11 07:41:44 51°13.627 2°55.965 4 203 10.3 101440 89
2003-03-11 07:41:50 51°13.631 2°55.952 6 226 10.3 101440 89
2003-03-11 07:41:54 51°13.633 2°55.944 5.3 200 10.3 101440 89
2003-03-11 07:42:00 51°13.637 2°55.932 4.2 179 10.3 101440 89
2003-03-11 07:42:04 51°13.64 2°55.924 3.3 215 10.3 101440 89
2003-03-11 07:42:10 51°13.644 2°55.912 3.7 196 10.3 101440 89
2003-03-11 07:42:14 51°13.647 2°55.904 3.9 216 10.3 101440 89
2003-03-11 07:42:20 51°13.651 2°55.891 4.3 207 10.3 101440 89
2003-03-11 07:42:24 51°13.654 2°55.883 3.7 213 10.3 101440 89
2003-03-11 07:42:30 51°13.659 2°55.87 4.9 235 10.3 101440 89
2003-03-11 07:42:34 51°13.662 2°55.861 3.2 197 10.3 101440 89
2003-03-11 07:42:40 51°13.668 2°55.848 4.4 221 10.3 101440 89
2003-03-11 07:42:44 51°13.671 2°55.84 5.6 221 10.3 101440 89
2003-03-11 07:42:50 51°13.675 2°55.828 5.2 209 10.3 101440 89
2003-03-11 07:42:54 51°13.678 2°55.821 5.1 225 10.3 101440 89
2003-03-11 07:43:00 51°13.681 2°55.809 5.7 223 10.3 101440 89
2003-03-11 07:43:04 51°13.684 2°55.803 5 222 10.3 101440 89
2003-03-11 07:43:08 51°13.686 2°55.796 3.9 234 10.3 101440 89
2003-03-11 07:43:14 51°13.689 2°55.787 4 239 10.3 101440 89
2003-03-11 07:43:19 51°13.691 2°55.781 4.7 246 10.3 101440 89
2003-03-11 07:43:24 51°13.692 2°55.776 5.3 258 10.3 101440 89
2003-03-11 07:43:28 51°13.694 2°55.772 2.9 208 10.3 101440 89
2003-03-11 07:43:34 51°13.695 2°55.767 2.7 209 10.3 101440 89
2003-03-11 07:43:39 51°13.696 2°55.763 3.7 240 10.3 101440 89
2003-03-11 07:43:44 51°13.697 2°55.76 3.5 208 10.3 101440 89
2003-03-11 07:43:48 51°13.697 2°55.758 1.6 195 10.3 101440 89
2003-03-11 07:43:52 51°13.698 2°55.757 1.6 184 10.3 101440 89
2003-03-11 07:43:58 51°13.698 2°55.755 3 234 10.3 101440 89
2003-03-11 07:44:04 51°13.699 2°55.755 2.5 263 10.3 101440 89
2003-03-11 07:44:09 51°13.7 2°55.755 2.6 238 10.3 101440 89
2003-03-11 07:44:14 51°13.701 2°55.756 2 131 10.3 101440 89
2003-03-11 07:44:19 51°13.701 2°55.757 3 244 10.3 101440 89
2003-03-11 07:44:24 51°13.703 2°55.758 3.1 195 10.3 101440 89
2003-03-11 07:44:28 51°13.704 2°55.76 3.5 203 10.3 101440 89
2003-03-11 07:44:34 51°13.705 2°55.761 3 213 10.3 101440 89
2003-03-11 07:44:39 51°13.706 2°55.762 1.4 151 10.3 101440 89
2003-03-11 07:44:43 51°13.707 2°55.762 1.1 103 10.3 101450 89
2003-03-11 07:44:48 51°13.707 2°55.762 2.2 140 10.3 101450 89
2003-03-11 07:44:54 51°13.707 2°55.761 2.4 130 10.3 101440 89
2003-03-11 07:44:59 51°13.706 2°55.759 3.2 155 10.3 101440 89
2003-03-11 07:45:04 51°13.705 2°55.757 2 186 10.3 101440 89
2003-03-11 07:45:08 51°13.704 2°55.755 1.9 211 10.3 101440 89
2003-03-11 07:45:14 51°13.702 2°55.752 3.2 168 10.3 101450 89
2003-03-11 07:45:20 51°13.7 2°55.749 2.4 146 10.3 101450 89
2003-03-11 07:45:24 51°13.699 2°55.748 5.8 130 10.3 101440 89
2003-03-11 07:45:30 51°13.697 2°55.745 3.6 130 10.3 101440 89
2003-03-11 07:45:34 51°13.696 2°55.744 3.5 165 10.3 101450 89
2003-03-11 07:45:40 51°13.696 2°55.742 2.4 184 10.3 101450 89
2003-03-11 07:45:44 51°13.695 2°55.741 1.8 189 10.4 101440 89
2003-03-11 07:45:48 51°13.696 2°55.739 2.4 263 10.4 101440 89
2003-03-11 07:45:54 51°13.698 2°55.737 1.6 236 10.4 101440 89
2003-03-11 07:45:59 51°13.699 2°55.736 1.2 15 10.4 101440 89
2003-03-11 07:46:04 51°13.701 2°55.736 1.4 58 10.4 101440 89
2003-03-11 07:46:09 51°13.702 2°55.736 2.8 37 10.4 101440 89
2003-03-11 07:46:14 51°13.704 2°55.737 2.5 134 10.4 101450 89
2003-03-11 07:46:19 51°13.706 2°55.736 2.7 89 10.4 101450 89
2003-03-11 07:46:24 51°13.709 2°55.735 4.4 66 10.4 101440 89
2003-03-11 07:46:29 51°13.713 2°55.733 4.2 132 10.4 101440 89
2003-03-11 07:46:34 51°13.717 2°55.73 4.2 31 10.4 101440 89
2003-03-11 07:46:39 51°13.721 2°55.727 3.8 53 10.4 101440 89
2003-03-11 07:46:43 51°13.725 2°55.723 3.3 50 10.4 101440 89
2003-03-11 07:46:48 51°13.73 2°55.719 4.9 39 10.4 101440 89
2003-03-11 07:46:54 51°13.737 2°55.712 3.1 28 10.4 101450 89
2003-03-11 07:46:59 51°13.743 2°55.707 3.5 25 10.4 101450 89
2003-03-11 07:47:04 51°13.75 2°55.701 4.5 45 10.4 101450 89
2003-03-11 07:47:08 51°13.755 2°55.695 3.6 45 10.4 101450 89
2003-03-11 07:47:14 51°13.764 2°55.688 3 57 10.4 101450 89
2003-03-11 07:47:19 51°13.772 2°55.681 3.9 16 10.4 101450 89
2003-03-11 07:47:24 51°13.78 2°55.674 4.1 40 10.4 101440 89
2003-03-11 07:47:28 51°13.786 2°55.668 2.4 57 10.4 101440 89
2003-03-11 07:47:34 51°13.796 2°55.659 5 355 10.4 101450 89
2003-03-11 07:47:39 51°13.804 2°55.651 2.8 325 10.4 101450 89
2003-03-11 07:47:44 51°13.814 2°55.642 2.7 355 10.4 101450 89
2003-03-11 07:47:49 51°13.823 2°55.634 3.9 22 10.4 101450 89
2003-03-11 07:47:54 51°13.832 2°55.626 2.4 10 10.4 101450 89
2003-03-11 07:47:58 51°13.839 2°55.62 2.3 346 10.4 101450 89
2003-03-11 07:48:04 51°13.85 2°55.611 2.6 10 10.4 101440 89
2003-03-11 07:48:08 51°13.857 2°55.606 2 28 10.4 101440 89
2003-03-11 07:48:12 51°13.866 2°55.599 2.5 14 10.4 101450 89
2003-03-11 07:48:18 51°13.877 2°55.59 2.3 25 10.4 101450 89
2003-03-11 07:48:23 51°13.886 2°55.583 2.4 50 10.4 101450 89
2003-03-11 07:48:28 51°13.895 2°55.575 6.1 62 10.4 101450 89
2003-03-11 07:48:33 51°13.904 2°55.568 5.2 34 10.4 101450 89
2003-03-11 07:48:39 51°13.915 2°55.558 3.3 7 10.4 101450 89
2003-03-11 07:48:44 51°13.925 2°55.551 4.2 18 10.4 101440 89
2003-03-11 07:48:49 51°13.934 2°55.544 2.3 26 10.4 101440 89
2003-03-11 07:48:54 51°13.944 2°55.536 5.6 29 10.4 101440 89
2003-03-11 07:48:59 51°13.953 2°55.529 5.2 31 10.4 101440 89
2003-03-11 07:49:04 51°13.963 2°55.522 4.1 28 10.4 101450 89
2003-03-11 07:49:09 51°13.973 2°55.515 3.6 33 10.4 101450 89
2003-03-11 07:49:14 51°13.982 2°55.508 4.6 22 10.4 101440 89
2003-03-11 07:49:19 51°13.992 2°55.5 6.5 39 10.4 101440 89
2003-03-11 07:49:24 51°14.002 2°55.492 4.3 28 10.4 101440 89
2003-03-11 07:49:28 51°14.01 2°55.485 4.4 27 10.4 101440 89
2003-03-11 07:49:32 51°14.018 2°55.478 3.9 30 10.4 101440 89
2003-03-11 07:49:39 51°14.032 2°55.467 5.1 29 10.4 101440 89
2003-03-11 07:49:44 51°14.041 2°55.46 6.3 36 10.4 101440 89
2003-03-11 07:49:49 51°14.051 2°55.453 5.2 37 10.4 101440 89
2003-03-11 07:49:54 51°14.06 2°55.445 4.3 55 10.4 101450 89
2003-03-11 07:49:58 51°14.068 2°55.439 6.7 40 10.4 101450 89
2003-03-11 07:50:04 51°14.08 2°55.43 6 61 10.4 101450 89
2003-03-11 07:50:09 51°14.09 2°55.422 4.8 35 10.4 101450 89
2003-03-11 07:50:14 51°14.1 2°55.414 4.6 19 10.4 101440 89
2003-03-11 07:50:19 51°14.11 2°55.407 4.3 8 10.4 101440 89
2003-03-11 07:50:24 51°14.119 2°55.4 4.8 356 10.4 101440 89
2003-03-11 07:50:28 51°14.127 2°55.393 6.4 25 10.4 101440 89
2003-03-11 07:50:33 51°14.137 2°55.386 7.8 8 10.4 101440 89
2003-03-11 07:50:39 51°14.15 2°55.377 7 26 10.4 101440 89
2003-03-11 07:50:44 51°14.159 2°55.369 7.2 29 10.4 101440 89
2003-03-11 07:50:48 51°14.167 2°55.363 7.9 29 10.4 101440 89
2003-03-11 07:50:54 51°14.178 2°55.354 8.4 49 10.4 101450 89
2003-03-11 07:50:59 51°14.187 2°55.346 7.5 133 10.4 101450 89
2003-03-11 07:51:04 51°14.196 2°55.337 5.6 45 10.4 101440 89
2003-03-11 07:51:08 51°14.203 2°55.33 7 49 10.4 101440 89
2003-03-11 07:51:14 51°14.213 2°55.32 7.5 49 10.4 101430 88
2003-03-11 07:51:19 51°14.221 2°55.311 7.9 57 10.4 101430 88
2003-03-11 07:51:24 51°14.228 2°55.302 9.9 50 10.3 101440 88
2003-03-11 07:51:28 51°14.234 2°55.295 10.3 54 10.3 101440 88
2003-03-11 07:51:34 51°14.243 2°55.284 10.8 49 10.3 101440 88
2003-03-11 07:51:39 51°14.251 2°55.274 10.9 45 10.3 101440 88
2003-03-11 07:51:44 51°14.258 2°55.264 10.6 48 10.3 101450 88
2003-03-11 07:51:48 51°14.264 2°55.255 11.2 44 10.3 101450 88
2003-03-11 07:51:53 51°14.271 2°55.243 10.3 45 10.2 101450 88
2003-03-11 07:51:58 51°14.279 2°55.231 10.4 38 10.2 101450 88
2003-03-11 07:52:04 51°14.288 2°55.214 10.5 35 10.2 101440 88
2003-03-11 07:52:09 51°14.295 2°55.2 11.5 38 10.2 101440 88
2003-03-11 07:52:14 51°14.303 2°55.185 10.5 41 10.1 101430 87
2003-03-11 07:52:19 51°14.31 2°55.17 9.6 50 10.1 101430 87
2003-03-11 07:52:24 51°14.318 2°55.155 10.2 30 10.1 101430 87
2003-03-11 07:52:28 51°14.324 2°55.143 8.6 31 10.1 101430 87
2003-03-11 07:52:34 51°14.333 2°55.125 9.5 40 10 101430 87
2003-03-11 07:52:38 51°14.339 2°55.113 10.7 42 10 101430 87
2003-03-11 07:52:43 51°14.346 2°55.097 12.3 35 10 101430 87
2003-03-11 07:52:48 51°14.353 2°55.08 12.8 41 10 101430 87
2003-03-11 07:52:54 51°14.362 2°55.06 13.1 44 10 101420 87
2003-03-11 07:52:59 51°14.369 2°55.044 13.1 42 10 101420 87
2003-03-11 07:53:04 51°14.376 2°55.027 14 39 9.9 101430 87
2003-03-11 07:53:08 51°14.382 2°55.013 14 32 9.9 101430 87
2003-03-11 07:53:14 51°14.392 2°54.991 12.7 36 9.9 101420 87
2003-03-11 07:53:19 51°14.398 2°54.973 14.1 33 9.9 101420 87
2003-03-11 07:53:23 51°14.403 2°54.958 13 31 9.8 101410 87
2003-03-11 07:53:28 51°14.409 2°54.939 13.3 28 9.8 101410 87
2003-03-11 07:53:34 51°14.415 2°54.916 15.3 29 9.8 101400 87
2003-03-11 07:53:39 51°14.419 2°54.897 13.8 23 9.8 101400 87
2003-03-11 07:53:44 51°14.423 2°54.877 14.6 25 9.8 101400 87
2003-03-11 07:53:48 51°14.425 2°54.861 13.9 18 9.8 101400 87
2003-03-11 07:53:54 51°14.429 2°54.837 13.7 22 9.7 101410 87
2003-03-11 07:53:59 51°14.43 2°54.817 13 17 9.7 101410 87
2003-03-11 07:54:04 51°14.432 2°54.797 14.5 14 9.7 101410 87
2003-03-11 07:54:08 51°14.433 2°54.781 13.7 14 9.7 101410 87
2003-03-11 07:54:14 51°14.432 2°54.757 13.8 9 9.7 101400 87
2003-03-11 07:54:19 51°14.431 2°54.737 13.2 8 9.7 101400 87
2003-03-11 07:54:24 51°14.43 2°54.717 14.2 9 9.6 101410 87
2003-03-11 07:54:29 51°14.428 2°54.697 13.9 5 9.6 101410 87
2003-03-11 07:54:34 51°14.426 2°54.677 14.8 7 9.6 101410 87
2003-03-11 07:54:39 51°14.424 2°54.658 14.6 5 9.6 101410 87
2003-03-11 07:54:43 51°14.422 2°54.644 14.3 8 9.6 101410 87
2003-03-11 07:54:49 51°14.419 2°54.623 12.7 1 9.6 101410 87
2003-03-11 07:54:54 51°14.416 2°54.608 12.5 2 9.5 101410 87
2003-03-11 07:54:59 51°14.413 2°54.593 13.4 2 9.5 101410 87
2003-03-11 07:55:04 51°14.41 2°54.579 13.5 1 9.5 101420 87
2003-03-11 07:55:08 51°14.408 2°54.569 13.6 359 9.5 101420 87
2003-03-11 07:55:14 51°14.405 2°54.555 12.6   9.5 101430 87
2003-03-11 07:55:19 51°14.401 2°54.545 12.4 353 9.5 101430 87
2003-03-11 07:55:24 51°14.398 2°54.535 12.6 349 9.4 101430 87
2003-03-11 07:55:28 51°14.395 2°54.528 11.8 355 9.4 101430 87
2003-03-11 07:55:34 51°14.391 2°54.518 11 348 9.4 101410 87
2003-03-11 07:55:39 51°14.388 2°54.511 12.3 341 9.4 101410 87
2003-03-11 07:55:44 51°14.384 2°54.505 12 345 9.4 101410 87
2003-03-11 07:55:48 51°14.381 2°54.5 11.6 339 9.4 101410 87
2003-03-11 07:55:54 51°14.376 2°54.493 11.9 340 9.4 101420 87
2003-03-11 07:55:58 51°14.374 2°54.489 12.1 340 9.4 101420 87
2003-03-11 07:56:04 51°14.369 2°54.484 12.3 335 9.4 101430 87
2003-03-11 07:56:08 51°14.367 2°54.48 11.4 333 9.4 101430 87
2003-03-11 07:56:12 51°14.364 2°54.477 10.9 332 9.3 101430 87
2003-03-11 07:56:18 51°14.359 2°54.474 11.2 329 9.3 101430 87
2003-03-11 07:56:23 51°14.356 2°54.471 10.9 330 9.3 101420 87
2003-03-11 07:56:28 51°14.352 2°54.469 11.3 325 9.3 101420 87
2003-03-11 07:56:34 51°14.349 2°54.466 10.9 325 9.3 101420 87
2003-03-11 07:56:39 51°14.346 2°54.464 9.8 316 9.3 101420 87
2003-03-11 07:56:44 51°14.343 2°54.463 10.3 320 9.3 101420 87
2003-03-11 07:56:49 51°14.34 2°54.462 10.9 320 9.3 101420 87
2003-03-11 07:56:54 51°14.337 2°54.461 10.5 319 9.3 101420 87
2003-03-11 07:56:59 51°14.334 2°54.46 10.5 318 9.3 101420 87
2003-03-11 07:57:04 51°14.331 2°54.459 10.7 317 9.2 101420 87
2003-03-11 07:57:09 51°14.329 2°54.458 10.4 317 9.2 101420 87
2003-03-11 07:57:14 51°14.326 2°54.458 10.7 319 9.2 101420 87
2003-03-11 07:57:19 51°14.324 2°54.456 10.2 320 9.2 101420 87
2003-03-11 07:57:24 51°14.321 2°54.456 11 323 9.2 101420 87
2003-03-11 07:57:29 51°14.319 2°54.455 10.9 318 9.2 101420 87
2003-03-11 07:57:34 51°14.316 2°54.454 9.9 322 9.2 101420 87
2003-03-11 07:57:39 51°14.314 2°54.454 10 320 9.2 101420 87
2003-03-11 07:57:44 51°14.311 2°54.453 10.2 322 9.2 101420 87
2003-03-11 07:57:48 51°14.309 2°54.453 9.6 325 9.2 101420 87
2003-03-11 07:57:54 51°14.306 2°54.451 9.6 330 9.2 101420 88
2003-03-11 07:57:58 51°14.304 2°54.45 9.7 326 9.2 101420 88
2003-03-11 07:58:03 51°14.302 2°54.45 10 330 9.2 101420 87
2003-03-11 07:58:08 51°14.299 2°54.449 9.8 333 9.2 101420 87
2003-03-11 07:58:14 51°14.296 2°54.447 9.6 334 9.1 101420 87
2003-03-11 07:58:18 51°14.294 2°54.446 10 333 9.1 101420 87
2003-03-11 07:58:24 51°14.292 2°54.444 10.5 336 9.1 101420 88
2003-03-11 07:58:28 51°14.29 2°54.443 10.4 339 9.1 101420 88
2003-03-11 07:58:32 51°14.289 2°54.441 9.9 336 9.1 101420 88
2003-03-11 07:58:38 51°14.286 2°54.439 9.7 341 9.1 101420 88
2003-03-11 07:58:43 51°14.285 2°54.437 10.5 341 9.1 101430 88
2003-03-11 07:58:49 51°14.283 2°54.435 9 343 9.1 101430 88
2003-03-11 07:58:54 51°14.281 2°54.433 10.4 345 9.1 101420 88
2003-03-11 07:58:59 51°14.279 2°54.431 11 346 9.1 101420 88
2003-03-11 07:59:04 51°14.277 2°54.428 9.4 342 9.1 101420 88
2003-03-11 07:59:08 51°14.276 2°54.426 9.3 343 9.1 101420 88
2003-03-11 07:59:14 51°14.274 2°54.423 10.3 347 9.1 101430 88
2003-03-11 07:59:19 51°14.273 2°54.421 10.3 351 9.1 101430 88
2003-03-11 07:59:24 51°14.271 2°54.419 10.6 354 9.1 101430 88
2003-03-11 07:59:28 51°14.27 2°54.416 9.7 357 9.1 101430 88
2003-03-11 07:59:34 51°14.269 2°54.412 10.4 360 9.1 101430 88
2003-03-11 07:59:39 51°14.268 2°54.409 9.9 1 9.1 101430 88
2003-03-11 07:59:44 51°14.267 2°54.406 9.8 359 9.1 101430 88
2003-03-11 07:59:49 51°14.266 2°54.403 8.9 4 9.1 101430 88
2003-03-11 07:59:54 51°14.265 2°54.399 9.7 3 9.1 101430 88
2003-03-11 07:59:59 51°14.265 2°54.396 9.8 10 9.1 101430 88
2003-03-11 08:00:04 51°14.264 2°54.393 9.7 12 9.1 101430 88
2003-03-11 08:00:08 51°14.263 2°54.39 10.4 5 9.1 101430 88
2003-03-11 08:00:14 51°14.263 2°54.386 9.6 12 9.1 101420 88
2003-03-11 08:00:19 51°14.263 2°54.382 10.9 14 9.1 101420 88
2003-03-11 08:00:24 51°14.262 2°54.379 10.1 18 9.1 101420 88
2003-03-11 08:00:28 51°14.262 2°54.376 10.2 12 9.1 101420 88
2003-03-11 08:00:34 51°14.262 2°54.371 10.3 19 9.1 101420 88
2003-03-11 08:00:38 51°14.261 2°54.365 11.4 9 9.1 101420 88
2003-03-11 08:00:44 51°14.26 2°54.356 11.4 10 9.1 101420 88
2003-03-11 08:00:49 51°14.258 2°54.345 12.3 2 9.1 101420 88
2003-03-11 08:00:54 51°14.256 2°54.334 12 1 9.1 101430 88
2003-03-11 08:00:58 51°14.253 2°54.324 12.3 356 9.1 101430 88
2003-03-11 08:01:04 51°14.247 2°54.307 13.7 357 9.1 101410 88
2003-03-11 08:01:08 51°14.243 2°54.295 14.5 356 9.1 101410 88
2003-03-11 08:01:14 51°14.236 2°54.275 14.4 356 9.1 101420 88
2003-03-11 08:01:19 51°14.229 2°54.257 13.5 3 9.1 101420 88
2003-03-11 08:01:24 51°14.223 2°54.238 14.3 355 9 101410 88
2003-03-11 08:01:29 51°14.216 2°54.219 14 357 9 101410 88
2003-03-11 08:01:34 51°14.209 2°54.199 14.3 358 9 101420 88
2003-03-11 08:01:39 51°14.202 2°54.178 15.2 353 9 101420 88
2003-03-11 08:01:44 51°14.195 2°54.157 14.9 357 9 101410 88
2003-03-11 08:01:48 51°14.189 2°54.141 16.2 355 9 101410 88
2003-03-11 08:01:54 51°14.18 2°54.115 15.4 356 9 101410 88
2003-03-11 08:01:58 51°14.173 2°54.098 14.7 355 9 101410 88
2003-03-11 08:02:03 51°14.166 2°54.077 14.8 353 9 101410 88
2003-03-11 08:02:08 51°14.158 2°54.055 14.7 358 9 101410 88
2003-03-11 08:02:14 51°14.148 2°54.029 13.9 354 9 101410 88
2003-03-11 08:02:19 51°14.141 2°54.007 14.7 355 9 101410 88
2003-03-11 08:02:24 51°14.133 2°53.985 15.2 358 9 101410 89
2003-03-11 08:02:28 51°14.126 2°53.967 14.9 352 9 101410 89
2003-03-11 08:02:34 51°14.117 2°53.94 14.8 357 9 101410 89
2003-03-11 08:02:38 51°14.11 2°53.922 14.2 357 9 101410 89
2003-03-11 08:02:44 51°14.101 2°53.896 15 356 9 101410 89
2003-03-11 08:02:49 51°14.093 2°53.874 15.4 358 9 101410 89
2003-03-11 08:02:54 51°14.085 2°53.851 15.7 356 9 101410 89
2003-03-11 08:02:58 51°14.078 2°53.833 14.8 356 9 101410 89
2003-03-11 08:03:04 51°14.069 2°53.806 15.3 355 9 101410 89
2003-03-11 08:03:08 51°14.062 2°53.788 15.2 357 9 101410 89
2003-03-11 08:03:14 51°14.052 2°53.761 14.6 359 9 101420 89
2003-03-11 08:03:18 51°14.046 2°53.743 15.4 355 9 101420 89
2003-03-11 08:03:24 51°14.036 2°53.716 14.7 357 9 101420 89
2003-03-11 08:03:28 51°14.029 2°53.698 13.9 359 9 101420 89
2003-03-11 08:03:33 51°14.021 2°53.675 14.9 357 9 101410 89
2003-03-11 08:03:39 51°14.011 2°53.648 14.1 357 9 101410 89
2003-03-11 08:03:44 51°14.004 2°53.625 14.5 358 9 101410 89
2003-03-11 08:03:48 51°13.997 2°53.607 14.2 358 9 101410 89
2003-03-11 08:03:53 51°13.989 2°53.585 13.8 358 9 101410 89
2003-03-11 08:03:59 51°13.979 2°53.558 14.5 357 9 101410 89
2003-03-11 08:04:04 51°13.971 2°53.535 15.3 353 9 101410 89
2003-03-11 08:04:09 51°13.963 2°53.513 14.7 354 9 101410 89
2003-03-11 08:04:14 51°13.955 2°53.49 15 355 9 101410 89
2003-03-11 08:04:19 51°13.947 2°53.468 14.9 357 9 101410 89
2003-03-11 08:04:24 51°13.939 2°53.446 14.4 358 9 101420 89
2003-03-11 08:04:28 51°13.932 2°53.428 14.5 357 9 101420 89
2003-03-11 08:04:34 51°13.923 2°53.401 14.8 358 9 101410 89
2003-03-11 08:04:38 51°13.916 2°53.382 15.1 359 9 101410 89
2003-03-11 08:04:43 51°13.908 2°53.36 15.1 359 9 101410 89
2003-03-11 08:04:48 51°13.9 2°53.337 14.6 360 9 101410 89
2003-03-11 08:04:54 51°13.89 2°53.31 15.4 356 9 101410 89
2003-03-11 08:04:59 51°13.882 2°53.287 15.2   9 101410 89
2003-03-11 08:05:04 51°13.874 2°53.264 14.8 1 9 101410 89
2003-03-11 08:05:09 51°13.866 2°53.241 13.8 359 9 101410 89
2003-03-11 08:05:14 51°13.858 2°53.218 15.4 1 9 101410 89
2003-03-11 08:05:18 51°13.851 2°53.2 15.6 359 9 101410 89
2003-03-11 08:05:24 51°13.841 2°53.172 16.1 360 9 101400 89
2003-03-11 08:05:29 51°13.832 2°53.148 14.7 357 9 101400 89
2003-03-11 08:05:34 51°13.823 2°53.124 14.9 356 9 101400 89
2003-03-11 08:05:38 51°13.816 2°53.105 14.7 358 9 101400 89
2003-03-11 08:05:44 51°13.806 2°53.075 15.1 359 9 101410 89
2003-03-11 08:05:49 51°13.797 2°53.05 15.3 1 9 101410 89
2003-03-11 08:05:54 51°13.788 2°53.025 15.7 358 9 101390 89
2003-03-11 08:05:58 51°13.782 2°53.005 15.1 359 9 101390 89
2003-03-11 08:06:04 51°13.77 2°52.975 14.2 2 9.1 101400 89
2003-03-11 08:06:09 51°13.762 2°52.949 15.7 357 9.1 101400 89
2003-03-11 08:06:14 51°13.753 2°52.923 15.2 359 9.1 101390 89
2003-03-11 08:06:19 51°13.745 2°52.897 15.2 357 9.1 101390 89
2003-03-11 08:06:24 51°13.736 2°52.871 15.1 359 9.1 101400 89
2003-03-11 08:06:29 51°13.728 2°52.845 14.9 358 9.1 101400 89
2003-03-11 08:06:34 51°13.719 2°52.818 15.1 358 9.1 101400 89
2003-03-11 08:06:39 51°13.711 2°52.791 15.6 359 9.1 101400 89
2003-03-11 08:06:44 51°13.703 2°52.765 15.4 358 9.1 101400 89
2003-03-11 08:06:48 51°13.696 2°52.744 15 1 9.1 101400 89
2003-03-11 08:06:54 51°13.685 2°52.713 15.5 359 9.1 101440 89
2003-03-11 08:06:59 51°13.676 2°52.686 15.3 357 9.1 101440 89
2003-03-11 08:07:04 51°13.667 2°52.659 15.9 358 9.1 101440 89
2003-03-11 08:07:08 51°13.66 2°52.638 16.2 1 9.1 101440 89
2003-03-11 08:07:14 51°13.65 2°52.606 15.4 357 9.1 101430 89
2003-03-11 08:07:19 51°13.641 2°52.579 14.6 359 9.1 101430 89
2003-03-11 08:07:24 51°13.632 2°52.553 15.7 359 9.1 101430 89
2003-03-11 08:07:29 51°13.622 2°52.525 15.6   9.1 101430 89
2003-03-11 08:07:34 51°13.614 2°52.499 14.7 359 9.2 101430 89
2003-03-11 08:07:38 51°13.607 2°52.478 15.2 2 9.2 101430 89
2003-03-11 08:07:44 51°13.597 2°52.447 14.9   9.2 101430 89
2003-03-11 08:07:49 51°13.588 2°52.42 15.4 359 9.2 101430 89
2003-03-11 08:07:54 51°13.58 2°52.394 15.7 360 9.2 101430 89
2003-03-11 08:07:58 51°13.573 2°52.373 16.2 1 9.2 101430 89
2003-03-11 08:08:04 51°13.562 2°52.341 16.1 359 9.2 101430 89
2003-03-11 08:08:08 51°13.555 2°52.319 15.2   9.2 101430 89
2003-03-11 08:08:12 51°13.548 2°52.298 15.1 359 9.2 101430 89
2003-03-11 08:08:18 51°13.538 2°52.266 15.2   9.2 101430 89
2003-03-11 08:08:24 51°13.527 2°52.234 15.2 359 9.2 101420 89
2003-03-11 08:08:28 51°13.52 2°52.213 14.6   9.2 101420 89
2003-03-11 08:08:32 51°13.513 2°52.192 15.1 1 9.2 101440 89
2003-03-11 08:08:38 51°13.503 2°52.16 14.7 359 9.2 101440 89
2003-03-11 08:08:44 51°13.492 2°52.129 15.1 1 9.2 101430 89
2003-03-11 08:08:49 51°13.484 2°52.102 14.7 1 9.2 101430 89
2003-03-11 08:08:54 51°13.475 2°52.076 15.1 358 9.2 101430 89
2003-03-11 08:08:58 51°13.468 2°52.055 15.3   9.2 101430 89
2003-03-11 08:09:04 51°13.458 2°52.023 14.9 359 9.2 101430 89
2003-03-11 08:09:08 51°13.452 2°52.001 14.8 1 9.2 101430 89
2003-03-11 08:09:14 51°13.441 2°51.969 14.7 3 9.2 101430 89
2003-03-11 08:09:19 51°13.433 2°51.942 14 3 9.2 101430 89
2003-03-11 08:09:24 51°13.424 2°51.916 14.3   9.3 101430 89
2003-03-11 08:09:28 51°13.418 2°51.895 14.2 360 9.3 101430 89
2003-03-11 08:09:34 51°13.407 2°51.863 14.9 1 9.2 101430 89
2003-03-11 08:09:39 51°13.398 2°51.836 15 360 9.2 101430 89
2003-03-11 08:09:44 51°13.389 2°51.81 15 1 9.2 101420 89
2003-03-11 08:09:48 51°13.383 2°51.788 14.8   9.2 101420 89
2003-03-11 08:09:54 51°13.372 2°51.756 14.6 360 9.2 101430 89
2003-03-11 08:09:59 51°13.363 2°51.73 14.5   9.2 101430 89
2003-03-11 08:10:04 51°13.354 2°51.703 14.1   9.2 101420 89
2003-03-11 08:10:08 51°13.347 2°51.682 15.2 357 9.2 101420 89
2003-03-11 08:10:12 51°13.34 2°51.66 14.5   9.2 101430 89
2003-03-11 08:10:18 51°13.33 2°51.628 14.3 1 9.2 101430 89
2003-03-11 08:10:24 51°13.319 2°51.596 14.7 1 9.2 101430 89
2003-03-11 08:10:29 51°13.311 2°51.569 13.8 2 9.2 101430 89
2003-03-11 08:10:34 51°13.302 2°51.542 13.9 2 9.2 101430 89
2003-03-11 08:10:38 51°13.295 2°51.521 14.6 1 9.2 101430 89
2003-03-11 08:10:44 51°13.284 2°51.489 14.7 359 9.2 101430 89
2003-03-11 08:10:49 51°13.275 2°51.462 14.9 359 9.2 101430 89
2003-03-11 08:10:54 51°13.267 2°51.435 14.7 359 9.2 101420 89
2003-03-11 08:10:58 51°13.26 2°51.414 14.7 2 9.2 101420 89
2003-03-11 08:11:04 51°13.249 2°51.382 14.3 2 9.2 101420 89
2003-03-11 08:11:09 51°13.241 2°51.355 13.9   9.2 101420 89
2003-03-11 08:11:14 51°13.232 2°51.328 16 360 9.2 101430 89
2003-03-11 08:11:19 51°13.223 2°51.302 15.5 1 9.2 101430 89
2003-03-11 08:11:24 51°13.214 2°51.275 15.1 359 9.2 101430 89
2003-03-11 08:11:29 51°13.206 2°51.248 15 2 9.2 101430 89
2003-03-11 08:11:34 51°13.197 2°51.221 14.9 3 9.2 101420 89
2003-03-11 08:11:38 51°13.19 2°51.2 14.8   9.2 101420 89
2003-03-11 08:11:44 51°13.179 2°51.168 14.8   9.2 101420 89
2003-03-11 08:11:48 51°13.172 2°51.147 14.7 360 9.2 101420 89
2003-03-11 08:11:54 51°13.162 2°51.115 15.3   9.2 101420 89
2003-03-11 08:11:59 51°13.153 2°51.088 15.7 1 9.2 101420 89
2003-03-11 08:12:03 51°13.147 2°51.067 15.7 1 9.2 101420 89
2003-03-11 08:12:08 51°13.138 2°51.04 16.2 2 9.2 101420 89
2003-03-11 08:12:14 51°13.128 2°51.009 15.7 2 9.2 101430 89
2003-03-11 08:12:18 51°13.121 2°50.987 15.7 1 9.2 101430 89
2003-03-11 08:12:24 51°13.11 2°50.955 16.2 1 9.2 101420 89
2003-03-11 08:12:29 51°13.101 2°50.929 15 1 9.2 101420 89
2003-03-11 08:12:34 51°13.093 2°50.903 15.8   9.2 101430 89
2003-03-11 08:12:39 51°13.084 2°50.877 14.8 360 9.2 101430 89
2003-03-11 08:12:44 51°13.075 2°50.85 15.6 2 9.3 101420 90
2003-03-11 08:12:49 51°13.067 2°50.824 15.4 4 9.3 101420 90
2003-03-11 08:12:54 51°13.058 2°50.797 16.1 7 9.3 101420 90
2003-03-11 08:12:59 51°13.05 2°50.771 15 2 9.3 101420 90
2003-03-11 08:13:04 51°13.041 2°50.744 15.9 359 9.3 101420 90
2003-03-11 08:13:08 51°13.034 2°50.723 15.7 3 9.3 101420 90
2003-03-11 08:13:14 51°13.024 2°50.691 15.6 1 9.3 101420 90
2003-03-11 08:13:19 51°13.015 2°50.665 15.1 1 9.3 101420 90
2003-03-11 08:13:24 51°13.006 2°50.639 15.7 3 9.3 101410 90
2003-03-11 08:13:28 51°12.999 2°50.618 15.2 1 9.3 101410 90
2003-03-11 08:13:34 51°12.989 2°50.587 15 1 9.3 101420 90
2003-03-11 08:13:39 51°12.981 2°50.561 15.6 1 9.3 101420 90
2003-03-11 08:13:44 51°12.972 2°50.534 16.2 1 9.3 101420 90
2003-03-11 08:13:48 51°12.965 2°50.513 15.6 2 9.3 101420 90
2003-03-11 08:13:54 51°12.955 2°50.481 14.6 4 9.3 101420 89
2003-03-11 08:13:59 51°12.946 2°50.455 15.6 6 9.3 101420 89
2003-03-11 08:14:04 51°12.938 2°50.428 15 358 9.3 101410 90
2003-03-11 08:14:08 51°12.931 2°50.407 15.8 357 9.3 101410 90
2003-03-11 08:14:14 51°12.92 2°50.375 15.5 1 9.3 101420 89
2003-03-11 08:14:18 51°12.913 2°50.354 16.8 3 9.3 101420 89
2003-03-11 08:14:24 51°12.903 2°50.322 15.9 1 9.3 101410 89
2003-03-11 08:14:29 51°12.894 2°50.296 16 359 9.3 101410 89
2003-03-11 08:14:34 51°12.886 2°50.269 15.7 360 9.3 101420 89
2003-03-11 08:14:39 51°12.877 2°50.243 16.7 1 9.3 101420 89
2003-03-11 08:14:44 51°12.868 2°50.216 15.5 3 9.3 101410 89
2003-03-11 08:14:48 51°12.861 2°50.195 16.3 2 9.3 101410 89
2003-03-11 08:14:54 51°12.851 2°50.163 16.2 1 9.3 101410 90
2003-03-11 08:14:59 51°12.842 2°50.136 16.5 2 9.3 101410 90
2003-03-11 08:15:04 51°12.833 2°50.109 15.6 1 9.3 101410 89
2003-03-11 08:15:09 51°12.825 2°50.083 16 3 9.3 101410 89
2003-03-11 08:15:14 51°12.816 2°50.056 16.7 3 9.3 101420 90
2003-03-11 08:15:18 51°12.809 2°50.035 15.7 2 9.3 101420 90
2003-03-11 08:15:23 51°12.801 2°50.008 16.3 359 9.3 101420 90
2003-03-11 08:15:28 51°12.792 2°49.981 16 3 9.3 101420 90
2003-03-11 08:15:34 51°12.781 2°49.949 15.8 2 9.3 101420 90
2003-03-11 08:15:39 51°12.773 2°49.923 15.9 2 9.3 101420 90
2003-03-11 08:15:44 51°12.764 2°49.896 14.6   9.3 101410 90
2003-03-11 08:15:49 51°12.755 2°49.869 15.8 1 9.3 101410 90
2003-03-11 08:15:54 51°12.747 2°49.842 16 359 9.3 101420 89
2003-03-11 08:15:59 51°12.738 2°49.816 15.9 359 9.3 101420 89
2003-03-11 08:16:04 51°12.729 2°49.789 15.4 358 9.3 101410 89
2003-03-11 08:16:08 51°12.722 2°49.767 15.8 2 9.3 101410 89
2003-03-11 08:16:12 51°12.715 2°49.746 15.9 360 9.3 101420 89
2003-03-11 08:16:18 51°12.704 2°49.714 15.3 2 9.3 101420 89
2003-03-11 08:16:24 51°12.694 2°49.682 15.5 2 9.3 101410 89
2003-03-11 08:16:29 51°12.685 2°49.655 16.3 5 9.3 101410 89
2003-03-11 08:16:34 51°12.677 2°49.628 15.6 359 9.3 101430 89
2003-03-11 08:16:38 51°12.67 2°49.607 16.4 4 9.3 101430 89
2003-03-11 08:16:44 51°12.659 2°49.575 15.7 2 9.3 101410 89
2003-03-11 08:16:48 51°12.652 2°49.554 17.3 2 9.3 101410 89
2003-03-11 08:16:54 51°12.642 2°49.522 16.9 360 9.3 101420 89
2003-03-11 08:16:58 51°12.635 2°49.5 16.7 2 9.3 101420 89
2003-03-11 08:17:04 51°12.624 2°49.469 16 357 9.3 101410 90
2003-03-11 08:17:09 51°12.616 2°49.442 16.2 2 9.3 101410 90
2003-03-11 08:17:14 51°12.607 2°49.415 16.9 360 9.3 101420 90
2003-03-11 08:17:18 51°12.6 2°49.394 17.4 2 9.3 101420 90
2003-03-11 08:17:24 51°12.59 2°49.362 17.1 360 9.3 101410 90
2003-03-11 08:17:28 51°12.583 2°49.341 16 2 9.3 101410 90
2003-03-11 08:17:34 51°12.573 2°49.308 15.4 359 9.4 101410 90
2003-03-11 08:17:39 51°12.564 2°49.28 16 3 9.4 101410 90
2003-03-11 08:17:44 51°12.555 2°49.253 16.5 1 9.4 101420 90
2003-03-11 08:17:49 51°12.546 2°49.226 15.1 2 9.4 101420 90
2003-03-11 08:17:54 51°12.537 2°49.2 15.7 2 9.4 101410 90
2003-03-11 08:17:59 51°12.529 2°49.173 15.3 2 9.4 101410 90
2003-03-11 08:18:04 51°12.52 2°49.146 15.9 359 9.4 101420 90
2003-03-11 08:18:08 51°12.513 2°49.125 15.8 360 9.4 101420 90
2003-03-11 08:18:14 51°12.502 2°49.093 16.1 2 9.4 101410 90
2003-03-11 08:18:19 51°12.494 2°49.066 16.8   9.4 101410 90
2003-03-11 08:18:24 51°12.485 2°49.039 16.9 1 9.4 101410 89
2003-03-11 08:18:29 51°12.476 2°49.012 15.8 4 9.4 101410 89
2003-03-11 08:18:34 51°12.468 2°48.985 16.2 359 9.4 101410 89
2003-03-11 08:18:38 51°12.461 2°48.964 17.1 360 9.4 101410 89
2003-03-11 08:18:43 51°12.452 2°48.937 16.7   9.4 101410 89
2003-03-11 08:18:48 51°12.443 2°48.91 16.6 2 9.4 101410 89
2003-03-11 08:18:54 51°12.433 2°48.879 16.1 4 9.4 101410 89
2003-03-11 08:18:59 51°12.425 2°48.853 15.6 1 9.4 101410 89
2003-03-11 08:19:04 51°12.416 2°48.828 15.9 2 9.4 101410 89
2003-03-11 08:19:09 51°12.407 2°48.801 16.4 7 9.4 101410 89
2003-03-11 08:19:14 51°12.399 2°48.774 15.8 4 9.4 101410 90
2003-03-11 08:19:19 51°12.389 2°48.747 17.4 1 9.4 101410 90
2003-03-11 08:19:24 51°12.38 2°48.721 16.7 1 9.4 101410 90
2003-03-11 08:19:29 51°12.371 2°48.695 16.4   9.4 101410 90
2003-03-11 08:19:34 51°12.362 2°48.668 15.7 358 9.4 101420 90
2003-03-11 08:19:39 51°12.353 2°48.642 16.7 358 9.4 101420 90
2003-03-11 08:19:44 51°12.344 2°48.616 16.6 3 9.4 101420 90
2003-03-11 08:19:49 51°12.335 2°48.59 15.8 1 9.4 101420 90
2003-03-11 08:19:54 51°12.326 2°48.564 16 3 9.4 101410 90
2003-03-11 08:19:58 51°12.319 2°48.543 16.6 2 9.4 101410 90
2003-03-11 08:20:04 51°12.309 2°48.511 17.1 358 9.5 101410 90
2003-03-11 08:20:09 51°12.3 2°48.485 15.8 3 9.5 101410 90
2003-03-11 08:20:14 51°12.291 2°48.458 15.7 1 9.4 101410 89
2003-03-11 08:20:18 51°12.283 2°48.438 16 359 9.4 101410 89
2003-03-11 08:20:24 51°12.273 2°48.406 15.8 1 9.5 101410 89
2003-03-11 08:20:28 51°12.265 2°48.385 16.5 1 9.5 101410 89
2003-03-11 08:20:34 51°12.254 2°48.353 15.8 1 9.5 101410 89
2003-03-11 08:20:39 51°12.245 2°48.326 15.8 357 9.5 101410 89
2003-03-11 08:20:44 51°12.236 2°48.299 16.3 2 9.5 101410 89
2003-03-11 08:20:48 51°12.228 2°48.278 16.2   9.5 101410 89
2003-03-11 08:20:54 51°12.217 2°48.245 15.9 1 9.5 101410 89
2003-03-11 08:20:59 51°12.209 2°48.219 16.2 360 9.5 101410 89
2003-03-11 08:21:04 51°12.2 2°48.193 15.9   9.4 101410 89
2003-03-11 08:21:09 51°12.191 2°48.166 16.7 3 9.4 101410 89
2003-03-11 08:21:14 51°12.182 2°48.139 16.9 359 9.4 101410 89
2003-03-11 08:21:19 51°12.173 2°48.112 17 358 9.4 101410 89
2003-03-11 08:21:24 51°12.164 2°48.086 16.7 359 9.4 101400 89
2003-03-11 08:21:29 51°12.155 2°48.059 17 5 9.4 101400 89
2003-03-11 08:21:34 51°12.147 2°48.033 16.3 2 9.4 101410 89
2003-03-11 08:21:39 51°12.138 2°48.006 16.8 3 9.4 101410 89
2003-03-11 08:21:44 51°12.129 2°47.98 15.7 2 9.5 101410 89
2003-03-11 08:21:48 51°12.122 2°47.958 16.2 1 9.5 101410 89
2003-03-11 08:21:54 51°12.111 2°47.926 16.6 3 9.5 101420 89
2003-03-11 08:21:58 51°12.104 2°47.905 18.4 5 9.5 101420 89
2003-03-11 08:22:04 51°12.093 2°47.873 19.2 358 9.5 101410 89
2003-03-11 08:22:09 51°12.084 2°47.847 17.8 1 9.5 101410 89
2003-03-11 08:22:14 51°12.075 2°47.82 17.4   9.5 101420 89
2003-03-11 08:22:19 51°12.067 2°47.795 17.6 3 9.5 101420 89
2003-03-11 08:22:24 51°12.058 2°47.769 17.6 2 9.5 101410 89
2003-03-11 08:22:28 51°12.051 2°47.748 15.8 1 9.5 101410 89
2003-03-11 08:22:34 51°12.041 2°47.716 16.4 4 9.5 101410 89
2003-03-11 08:22:39 51°12.032 2°47.69 16.2 2 9.5 101410 89
2003-03-11 08:22:44 51°12.023 2°47.663 16.1 2 9.5 101420 90
2003-03-11 08:22:48 51°12.016 2°47.642 16.4   9.5 101420 90
2003-03-11 08:22:54 51°12.004 2°47.61 16.6 359 9.5 101410 90
2003-03-11 08:22:59 51°11.995 2°47.583 16.9 5 9.5 101410 90
2003-03-11 08:23:04 51°11.985 2°47.557 16.1 2 9.5 101410 89
2003-03-11 08:23:08 51°11.978 2°47.535 15.6 1 9.5 101410 89
2003-03-11 08:23:14 51°11.968 2°47.503 16.3 360 9.5 101410 89
2003-03-11 08:23:18 51°11.961 2°47.482 16.3 358 9.5 101410 89
2003-03-11 08:23:24 51°11.95 2°47.451 16.5 358 9.5 101410 89
2003-03-11 08:23:29 51°11.941 2°47.424 16.7 1 9.5 101410 89
2003-03-11 08:23:34 51°11.932 2°47.397 16.2 2 9.5 101410 89
2003-03-11 08:23:39 51°11.923 2°47.371 16.7 1 9.5 101410 89
2003-03-11 08:23:44 51°11.914 2°47.345 16.8 357 9.5 101420 89
2003-03-11 08:23:48 51°11.907 2°47.324 17.8 1 9.5 101420 89
2003-03-11 08:23:54 51°11.897 2°47.292 17.6 2 9.5 101420 89
2003-03-11 08:23:59 51°11.888 2°47.265 17 2 9.5 101420 89
2003-03-11 08:24:04 51°11.879 2°47.239 16.5 1 9.5 101420 89
2003-03-11 08:24:09 51°11.87 2°47.213 15.9 354 9.5 101420 89
2003-03-11 08:24:14 51°11.86 2°47.186 17.3 359 9.5 101420 89
2003-03-11 08:24:18 51°11.852 2°47.165 17   9.5 101420 89
2003-03-11 08:24:23 51°11.843 2°47.138 17.2 1 9.5 101410 89
2003-03-11 08:24:28 51°11.834 2°47.111 17.4 359 9.5 101410 89
2003-03-11 08:24:34 51°11.823 2°47.079 17.4   9.5 101410 89
2003-03-11 08:24:39 51°11.814 2°47.053 17.2 4 9.5 101410 89
2003-03-11 08:24:44 51°11.805 2°47.026 18 3 9.5 101420 89
2003-03-11 08:24:49 51°11.796 2°46.999 16.9 4 9.5 101420 89
2003-03-11 08:24:54 51°11.787 2°46.972 17.6   9.5 101410 89
2003-03-11 08:24:59 51°11.778 2°46.945 17.4 2 9.5 101410 89
2003-03-11 08:25:04 51°11.769 2°46.918 16.9 2 9.5 101420 89
2003-03-11 08:25:08 51°11.762 2°46.896 16.3 3 9.5 101420 89
2003-03-11 08:25:12 51°11.755 2°46.875 15.4 1 9.5 101400 89
2003-03-11 08:25:18 51°11.744 2°46.843 16.7 359 9.5 101400 89
2003-03-11 08:25:24 51°11.733 2°46.81 16.7   9.5 101420 89
2003-03-11 08:25:29 51°11.724 2°46.783 15.7   9.5 101420 89
2003-03-11 08:25:34 51°11.715 2°46.756 16.1 2 9.5 101410 89
2003-03-11 08:25:38 51°11.709 2°46.734 16.3 1 9.5 101410 89
2003-03-11 08:25:44 51°11.698 2°46.702 16.2 2 9.5 101410 89
2003-03-11 08:25:48 51°11.69 2°46.68 15.7 1 9.5 101410 89
2003-03-11 08:25:54 51°11.678 2°46.648 16.4 358 9.5 101410 89
2003-03-11 08:25:58 51°11.671 2°46.627 16.1 2 9.5 101410 89
2003-03-11 08:26:04 51°11.66 2°46.595 16 1 9.5 101410 89
2003-03-11 08:26:09 51°11.652 2°46.568 14.8 360 9.5 101410 89
2003-03-11 08:26:14 51°11.643 2°46.541 16.7 1 9.5 101410 89
2003-03-11 08:26:18 51°11.636 2°46.52 16.4   9.5 101410 89
2003-03-11 08:26:24 51°11.625 2°46.488 16.1 3 9.4 101410 89
2003-03-11 08:26:28 51°11.618 2°46.466 16.8 5 9.4 101410 89
2003-03-11 08:26:34 51°11.608 2°46.434 16.9 1 9.5 101410 89
2003-03-11 08:26:39 51°11.599 2°46.408 16.8 2 9.5 101410 89
2003-03-11 08:26:44 51°11.59 2°46.381 16.5   9.4 101410 89
2003-03-11 08:26:48 51°11.583 2°46.36 17 1 9.4 101410 89
2003-03-11 08:26:54 51°11.573 2°46.328 16 359 9.5 101410 89
2003-03-11 08:26:59 51°11.564 2°46.302 16.9 3 9.5 101410 89
2003-03-11 08:27:04 51°11.555 2°46.275 16.8   9.5 101410 89
2003-03-11 08:27:08 51°11.548 2°46.253 16.6   9.5 101410 89
2003-03-11 08:27:14 51°11.537 2°46.221 15.9 1 9.5 101410 89
2003-03-11 08:27:19 51°11.528 2°46.195 16.4 360 9.5 101410 89
2003-03-11 08:27:24 51°11.52 2°46.169 15.5 2 9.5 101410 89
2003-03-11 08:27:29 51°11.511 2°46.143 16.1 3 9.5 101410 89
2003-03-11 08:27:34 51°11.502 2°46.116 16 2 9.4 101410 89
2003-03-11 08:27:39 51°11.493 2°46.089 15.5 2 9.4 101410 89
2003-03-11 08:27:44 51°11.484 2°46.062 15.6 2 9.4 101410 89
2003-03-11 08:27:48 51°11.477 2°46.042 16.8 2 9.4 101410 89
2003-03-11 08:27:54 51°11.466 2°46.01 16.8 3 9.4 101410 89
2003-03-11 08:27:59 51°11.457 2°45.983 15.6 1 9.4 101410 89
2003-03-11 08:28:04 51°11.448 2°45.956 16.4 4 9.5 101410 89
2003-03-11 08:28:08 51°11.441 2°45.935 15.6 2 9.5 101410 89
2003-03-11 08:28:14 51°11.43 2°45.903 16.4 5 9.5 101410 89
2003-03-11 08:28:18 51°11.423 2°45.881 16.3 1 9.5 101410 89
2003-03-11 08:28:24 51°11.413 2°45.849 16.1 5 9.5 101410 89
2003-03-11 08:28:29 51°11.404 2°45.822 15.5 2 9.5 101410 89
2003-03-11 08:28:34 51°11.395 2°45.796 15.3 4 9.4 101410 89
2003-03-11 08:28:39 51°11.385 2°45.769 16 2 9.4 101410 89
2003-03-11 08:28:44 51°11.375 2°45.743 16.5 3 9.5 101410 89
2003-03-11 08:28:48 51°11.368 2°45.721 16.3 2 9.5 101410 89
2003-03-11 08:28:54 51°11.357 2°45.689 15.5 2 9.4 101410 89
2003-03-11 08:28:59 51°11.348 2°45.663 15.8 3 9.4 101410 89
2003-03-11 08:29:04 51°11.339 2°45.636 17.6   9.4 101410 89
2003-03-11 08:29:09 51°11.331 2°45.609 16.4 3 9.4 101410 89
2003-03-11 08:29:14 51°11.322 2°45.583 16.3 1 9.4 101420 89
2003-03-11 08:29:18 51°11.315 2°45.561 16.6 2 9.4 101420 89
2003-03-11 08:29:23 51°11.306 2°45.535 16.3 2 9.4 101410 89
2003-03-11 08:29:28 51°11.297 2°45.509 16 2 9.4 101410 89
2003-03-11 08:29:34 51°11.287 2°45.477 15.7   9.4 101410 89
2003-03-11 08:29:39 51°11.278 2°45.45 15.9 4 9.4 101410 89
2003-03-11 08:29:44 51°11.269 2°45.423 16.3 359 9.4 101420 90
2003-03-11 08:29:48 51°11.262 2°45.402 16.5 3 9.4 101420 90
2003-03-11 08:29:54 51°11.252 2°45.37 16 359 9.4 101420 90
2003-03-11 08:29:59 51°11.243 2°45.344 16.3 1 9.4 101420 90
2003-03-11 08:30:04 51°11.234 2°45.317 15.9 1 9.4 101420 89
2003-03-11 08:30:08 51°11.227 2°45.295 16 3 9.4 101420 89
2003-03-11 08:30:14 51°11.216 2°45.264 16.4 3 9.4 101420 89
2003-03-11 08:30:19 51°11.207 2°45.237 18.1   9.4 101420 89
2003-03-11 08:30:24 51°11.199 2°45.21 17.2   9.4 101420 89
2003-03-11 08:30:28 51°11.192 2°45.189 16.9 4 9.4 101420 89
2003-03-11 08:30:34 51°11.181 2°45.157 17.2 1 9.4 101410 89
2003-03-11 08:30:39 51°11.172 2°45.13 15.6 359 9.4 101410 89
2003-03-11 08:30:44 51°11.163 2°45.103 15.7 358 9.4 101420 89
2003-03-11 08:30:49 51°11.154 2°45.076 16.1 360 9.4 101420 89
2003-03-11 08:30:54 51°11.145 2°45.05 15.6 2 9.4 101430 89
2003-03-11 08:30:59 51°11.136 2°45.023 16.2 358 9.4 101430 89
2003-03-11 08:31:04 51°11.127 2°44.996 15.9 3 9.4 101420 90
2003-03-11 08:31:09 51°11.118 2°44.969 16.8 359 9.4 101420 90
2003-03-11 08:31:14 51°11.109 2°44.943 16.5 3 9.4 101420 90
2003-03-11 08:31:19 51°11.1 2°44.916 16.4 360 9.4 101420 90
2003-03-11 08:31:24 51°11.091 2°44.889 17.3 360 9.4 101420 89
2003-03-11 08:31:28 51°11.084 2°44.868 17.5   9.4 101420 89
2003-03-11 08:31:34 51°11.073 2°44.836 16.2 360 9.4 101420 89
2003-03-11 08:31:39 51°11.064 2°44.809 16.9   9.4 101420 89
2003-03-11 08:31:44 51°11.055 2°44.782 16.1 1 9.4 101420 90
2003-03-11 08:31:49 51°11.046 2°44.755 16.2 360 9.4 101420 90
2003-03-11 08:31:54 51°11.038 2°44.728 17.1 358 9.4 101420 90
2003-03-11 08:31:58 51°11.031 2°44.707 17.4 359 9.4 101420 90
2003-03-11 08:32:04 51°11.02 2°44.675 16.4 360 9.4 101420 90
2003-03-11 08:32:09 51°11.011 2°44.648 16.4 1 9.4 101420 90
2003-03-11 08:32:14 51°11.002 2°44.621 16 1 9.4 101420 90
2003-03-11 08:32:18 51°10.995 2°44.599 16.3 1 9.4 101420 90
2003-03-11 08:32:24 51°10.985 2°44.567 15.8 1 9.4 101410 90
2003-03-11 08:32:29 51°10.975 2°44.54 15.7 359 9.4 101410 90
2003-03-11 08:32:34 51°10.967 2°44.513 16.4 3 9.4 101420 90
2003-03-11 08:32:39 51°10.958 2°44.486 15.9 2 9.4 101420 90
2003-03-11 08:32:44 51°10.949 2°44.46 17.7 358 9.4 101420 90
2003-03-11 08:32:49 51°10.94 2°44.433 15.8 359 9.4 101420 90
2003-03-11 08:32:54 51°10.931 2°44.406 15.7 358 9.4 101420 90
2003-03-11 08:32:59 51°10.922 2°44.379 16.7 359 9.4 101420 90
2003-03-11 08:33:04 51°10.913 2°44.352 15.9 360 9.4 101420 90
2003-03-11 08:33:09 51°10.904 2°44.326 16.4 2 9.4 101420 90
2003-03-11 08:33:14 51°10.895 2°44.299 16.5 3 9.4 101420 90
2003-03-11 08:33:19 51°10.886 2°44.272 16.9 359 9.4 101420 90
2003-03-11 08:33:24 51°10.878 2°44.245 17.4 356 9.4 101420 90
2003-03-11 08:33:28 51°10.87 2°44.224 17.2 359 9.4 101420 90
2003-03-11 08:33:34 51°10.859 2°44.192 16 1 9.4 101420 90
2003-03-11 08:33:39 51°10.85 2°44.165 17.5 360 9.4 101420 90
2003-03-11 08:33:44 51°10.841 2°44.139 17.1 359 9.4 101420 90
2003-03-11 08:33:49 51°10.832 2°44.112 17.2   9.4 101420 90
2003-03-11 08:33:54 51°10.823 2°44.085 17.2   9.4 101420 90
2003-03-11 08:33:59 51°10.815 2°44.058 16.3 358 9.4 101420 90
2003-03-11 08:34:04 51°10.806 2°44.032 16.3 358 9.4 101420 90
2003-03-11 08:34:08 51°10.799 2°44.01 16.7 358 9.4 101420 90
2003-03-11 08:34:14 51°10.788 2°43.979 15.4 1 9.4 101410 90
2003-03-11 08:34:19 51°10.78 2°43.952 16.1 2 9.4 101410 90
2003-03-11 08:34:23 51°10.773 2°43.93 16.9 359 9.4 101420 90
2003-03-11 08:34:29 51°10.762 2°43.898 17 358 9.4 101420 90
2003-03-11 08:34:34 51°10.754 2°43.871 15.8 358 9.4 101420 90
2003-03-11 08:34:39 51°10.745 2°43.845 16.3 357 9.4 101420 90
2003-03-11 08:34:44 51°10.736 2°43.818 17.2 359 9.4 101420 90
2003-03-11 08:34:49 51°10.728 2°43.791 17.2 355 9.4 101420 90
2003-03-11 08:34:54 51°10.719 2°43.764 18.7 360 9.4 101420 90
2003-03-11 08:34:59 51°10.71 2°43.737 17.6 358 9.4 101420 90
2003-03-11 08:35:04 51°10.702 2°43.71 18.7 360 9.4 101430 90
2003-03-11 08:35:09 51°10.694 2°43.683 17.6 7 9.4 101430 90
2003-03-11 08:35:14 51°10.688 2°43.655 18.7 8 9.5 101420 90
2003-03-11 08:35:19 51°10.682 2°43.626 17.8 8 9.5 101420 90
2003-03-11 08:35:24 51°10.677 2°43.596 18 9 9.4 101420 90
2003-03-11 08:35:29 51°10.674 2°43.567 14.9 16 9.4 101420 90
2003-03-11 08:35:34 51°10.671 2°43.537 16.8 14 9.4 101420 90
2003-03-11 08:35:39 51°10.669 2°43.507 16.5 17 9.4 101420 90
2003-03-11 08:35:44 51°10.669 2°43.477 15.6 22 9.4 101420 90
2003-03-11 08:35:49 51°10.669 2°43.446 15.2 19 9.4 101420 90
2003-03-11 08:35:54 51°10.67 2°43.416 15.5 21 9.4 101420 90
2003-03-11 08:35:59 51°10.671 2°43.386 15.7 22 9.4 101420 90
2003-03-11 08:36:04 51°10.673 2°43.356 15.1 19 9.4 101410 90
2003-03-11 08:36:09 51°10.675 2°43.326 16.8 21 9.4 101410 90
2003-03-11 08:36:14 51°10.677 2°43.296 16.5 22 9.4 101410 90
2003-03-11 08:36:19 51°10.679 2°43.266 16.5 25 9.4 101410 90
2003-03-11 08:36:24 51°10.68 2°43.236 15.1 19 9.4 101410 90
2003-03-11 08:36:28 51°10.682 2°43.211 15.3 18 9.4 101410 90
2003-03-11 08:36:34 51°10.685 2°43.175 15.3 22 9.4 101410 90
2003-03-11 08:36:38 51°10.687 2°43.151 15.7 23 9.4 101410 90
2003-03-11 08:36:44 51°10.691 2°43.115 16.6 23 9.4 101420 90
2003-03-11 08:36:48 51°10.693 2°43.09 15.1 21 9.4 101420 90
2003-03-11 08:36:54 51°10.697 2°43.054 15.9 23 9.3 101420 90
2003-03-11 08:36:59 51°10.699 2°43.023 15.3 22 9.3 101420 90
2003-03-11 08:37:04 51°10.702 2°42.993 15 21 9.3 101410 90
2003-03-11 08:37:08 51°10.705 2°42.969 15.5 25 9.3 101410 90
2003-03-11 08:37:14 51°10.708 2°42.932 16.3 22 9.3 101410 90
2003-03-11 08:37:19 51°10.711 2°42.902 15.2 23 9.3 101410 90
2003-03-11 08:37:23 51°10.713 2°42.878 15 23 9.3 101420 90
2003-03-11 08:37:29 51°10.717 2°42.841 16.2 20 9.3 101420 90
2003-03-11 08:37:34 51°10.72 2°42.81 15.6 20 9.3 101410 90
2003-03-11 08:37:39 51°10.723 2°42.78 15.9 19 9.3 101410 90
2003-03-11 08:37:44 51°10.726 2°42.75 16.1 21 9.3 101420 90
2003-03-11 08:37:49 51°10.729 2°42.719 16.2 21 9.3 101420 90
2003-03-11 08:37:54 51°10.732 2°42.689 15.3 20 9.3 101410 90
2003-03-11 08:37:59 51°10.735 2°42.658 14.3 22 9.3 101410 90
2003-03-11 08:38:04 51°10.738 2°42.628 15.4 20 9.3 101420 90
2003-03-11 08:38:08 51°10.74 2°42.603 15.7 21 9.3 101420 90
2003-03-11 08:38:14 51°10.744 2°42.567 15.4 22 9.3 101410 90
2003-03-11 08:38:19 51°10.747 2°42.536 15.3 20 9.3 101410 90
2003-03-11 08:38:24 51°10.75 2°42.506 15.2 22 9.3 101420 90
2003-03-11 08:38:28 51°10.752 2°42.481 15.4 20 9.3 101420 90
2003-03-11 08:38:34 51°10.754 2°42.443 15.2 20 9.3 101420 90
2003-03-11 08:38:39 51°10.756 2°42.412 14.3 20 9.3 101420 90
2003-03-11 08:38:44 51°10.758 2°42.381 15.1 21 9.3 101420 90
2003-03-11 08:38:48 51°10.759 2°42.356 16.8 21 9.3 101420 90
2003-03-11 08:38:54 51°10.762 2°42.319 15.4 20 9.3 101420 90
2003-03-11 08:38:59 51°10.764 2°42.288 15.5 25 9.3 101420 90
2003-03-11 08:39:04 51°10.767 2°42.258 14.6 25 9.3 101420 90
2003-03-11 08:39:08 51°10.769 2°42.233 14.9 17 9.3 101420 90
2003-03-11 08:39:14 51°10.773 2°42.196 16.5 20 9.2 101420 90
2003-03-11 08:39:19 51°10.777 2°42.166 16.1 22 9.2 101420 90
2003-03-11 08:39:24 51°10.781 2°42.136 15.1 21 9.2 101420 90
2003-03-11 08:39:28 51°10.783 2°42.112 16.5 22 9.2 101420 90
2003-03-11 08:39:34 51°10.787 2°42.076 14.4 18 9.2 101420 90
2003-03-11 08:39:39 51°10.79 2°42.046 15.8 20 9.2 101420 90
2003-03-11 08:39:44 51°10.793 2°42.016 14.8 17 9.2 101420 90
2003-03-11 08:39:49 51°10.797 2°41.986 14.4 21 9.2 101420 90
2003-03-11 08:39:54 51°10.8 2°41.956 14.3 19 9.2 101420 90
2003-03-11 08:39:59 51°10.803 2°41.926 15 21 9.2 101420 90
2003-03-11 08:40:04 51°10.806 2°41.896 15.5 21 9.2 101420 90
2003-03-11 08:40:09 51°10.809 2°41.866 16 22 9.2 101420 90
2003-03-11 08:40:14 51°10.813 2°41.836 15.5 20 9.2 101420 90
2003-03-11 08:40:18 51°10.815 2°41.812 15 25 9.2 101420 90
2003-03-11 08:40:24 51°10.819 2°41.777 15.5 21 9.2 101430 90
2003-03-11 08:40:28 51°10.822 2°41.753 15.9 20 9.2 101430 90
2003-03-11 08:40:34 51°10.826 2°41.717 15.6 21 9.2 101420 90
2003-03-11 08:40:39 51°10.829 2°41.687 16 20 9.2 101420 90
2003-03-11 08:40:44 51°10.832 2°41.657 15.7 19 9.2 101420 90
2003-03-11 08:40:48 51°10.835 2°41.633 15.1 17 9.2 101420 90
2003-03-11 08:40:54 51°10.839 2°41.597 15.2 23 9.2 101420 90
2003-03-11 08:40:59 51°10.842 2°41.567 15.4 22 9.2 101420 90
2003-03-11 08:41:04 51°10.845 2°41.537 15.6 22 9.2 101420 90
2003-03-11 08:41:08 51°10.847 2°41.512 14.3 21 9.2 101420 90
2003-03-11 08:41:14 51°10.851 2°41.476 14.7 23 9.2 101420 90
2003-03-11 08:41:19 51°10.854 2°41.446 14.9 22 9.2 101420 90
2003-03-11 08:41:24 51°10.857 2°41.416 15.5 19 9.2 101430 90
2003-03-11 08:41:28 51°10.859 2°41.392 15.5 20 9.2 101430 90
2003-03-11 08:41:34 51°10.863 2°41.356 14.7 24 9.2 101430 90
2003-03-11 08:41:39 51°10.865 2°41.326 15.7 18 9.2 101430 90
2003-03-11 08:41:44 51°10.868 2°41.296 15.2 18 9.2 101430 90
2003-03-11 08:41:48 51°10.869 2°41.272 15.2 14 9.2 101430 90
2003-03-11 08:41:52 51°10.869 2°41.248 15.5 12 9.2 101430 90
2003-03-11 08:41:59 51°10.866 2°41.207 17.2 9 9.2 101430 90
2003-03-11 08:42:04 51°10.863 2°41.177 15.8 9 9.2 101430 90
2003-03-11 08:42:08 51°10.86 2°41.154 15.4 3 9.2 101430 90
2003-03-11 08:42:14 51°10.853 2°41.12 16.2 7 9.2 101430 90
2003-03-11 08:42:19 51°10.847 2°41.092 16.7 5 9.2 101430 90
2003-03-11 08:42:24 51°10.84 2°41.064 16.6 360 9.1 101430 90
2003-03-11 08:42:28 51°10.834 2°41.042 16.9 1 9.1 101430 90
2003-03-11 08:42:34 51°10.824 2°41.009 16.2 357 9.2 101430 90
2003-03-11 08:42:39 51°10.816 2°40.982 16.7 360 9.2 101430 90
2003-03-11 08:42:44 51°10.807 2°40.955 16.6 356 9.1 101440 90
2003-03-11 08:42:48 51°10.8 2°40.934 16.2 354 9.1 101440 90
2003-03-11 08:42:54 51°10.789 2°40.902 16 356 9.2 101440 90
2003-03-11 08:42:59 51°10.778 2°40.878 16.1 351 9.2 101440 90
2003-03-11 08:43:04 51°10.767 2°40.854 16.2 351 9.2 101440 90
2003-03-11 08:43:08 51°10.758 2°40.836 15.8 351 9.2 101440 90
2003-03-11 08:43:14 51°10.743 2°40.809 16.4 351 9.2 101450 90
2003-03-11 08:43:19 51°10.73 2°40.787 16.1 346 9.2 101450 90
2003-03-11 08:43:23 51°10.719 2°40.772 15.5 345 9.2 101440 90
2003-03-11 08:43:29 51°10.701 2°40.751 16.1 341 9.2 101440 90
2003-03-11 08:43:34 51°10.687 2°40.734 16.2 342 9.2 101450 90
2003-03-11 08:43:39 51°10.671 2°40.718 15.6 339 9.2 101450 90
2003-03-11 08:43:44 51°10.655 2°40.702 16.1 337 9.2 101450 90
2003-03-11 08:43:49 51°10.639 2°40.687 16.4 338 9.2 101450 90
2003-03-11 08:43:54 51°10.623 2°40.673 16.1 337 9.2 101440 90
2003-03-11 08:43:59 51°10.606 2°40.658 16.3 337 9.2 101440 90
2003-03-11 08:44:04 51°10.589 2°40.643 16 338 9.2 101440 90
2003-03-11 08:44:09 51°10.572 2°40.629 17.1 339 9.2 101440 90
2003-03-11 08:44:14 51°10.556 2°40.614 15.8 340 9.2 101440 90
2003-03-11 08:44:19 51°10.539 2°40.6 15.7 337 9.2 101440 90
2003-03-11 08:44:24 51°10.523 2°40.586 15.5 341 9.2 101440 90
2003-03-11 08:44:28 51°10.51 2°40.575 16 338 9.2 101440 90
2003-03-11 08:44:34 51°10.489 2°40.557 16 338 9.2 101440 90
2003-03-11 08:44:39 51°10.473 2°40.542 16.1 339 9.2 101440 90
2003-03-11 08:44:44 51°10.456 2°40.528 16 340 9.1 101450 90
2003-03-11 08:44:48 51°10.443 2°40.516 15.7 338 9.1 101450 90
2003-03-11 08:44:54 51°10.423 2°40.5 15.6 338 9.1 101450 90
2003-03-11 08:44:59 51°10.406 2°40.485 16 340 9.1 101450 90
2003-03-11 08:45:04 51°10.39 2°40.47 16.8 338 9.2 101450 90
2003-03-11 08:45:08 51°10.376 2°40.458 15.8 337 9.2 101450 90
2003-03-11 08:45:14 51°10.356 2°40.441 15.9 337 9.2 101450 90
2003-03-11 08:45:19 51°10.34 2°40.426 16.1 338 9.2 101450 90
2003-03-11 08:45:24 51°10.323 2°40.411 16.5 340 9.2 101440 90
2003-03-11 08:45:29 51°10.307 2°40.396 15.8 339 9.2 101440 90
2003-03-11 08:45:34 51°10.29 2°40.381 15.5 339 9.1 101450 90
2003-03-11 08:45:39 51°10.274 2°40.366 16.3 338 9.1 101450 90
2003-03-11 08:45:44 51°10.257 2°40.35 16.6 338 9.1 101450 90
2003-03-11 08:45:48 51°10.244 2°40.338 16 340 9.1 101450 90
2003-03-11 08:45:54 51°10.224 2°40.32 16.4 339 9.2 101450 90
2003-03-11 08:45:59 51°10.208 2°40.306 15.4 340 9.2 101450 90
2003-03-11 08:46:04 51°10.191 2°40.29 16.2 345 9.1 101450 90
2003-03-11 08:46:09 51°10.175 2°40.275 15.3 340 9.1 101450 90
2003-03-11 08:46:14 51°10.159 2°40.26 15.8 338 9.1 101440 90
2003-03-11 08:46:19 51°10.142 2°40.245 16.1 342 9.1 101440 90
2003-03-11 08:46:24 51°10.126 2°40.23 16.8 340 9.1 101440 90
2003-03-11 08:46:28 51°10.113 2°40.218 16.7 340 9.1 101440 90
2003-03-11 08:46:34 51°10.093 2°40.2 15.9 339 9.1 101440 90
2003-03-11 08:46:39 51°10.077 2°40.185 17.7 343 9.1 101440 90
2003-03-11 08:46:44 51°10.06 2°40.17 16.6 339 9.1 101450 90
2003-03-11 08:46:49 51°10.044 2°40.154 16.4 343 9.1 101450 90
2003-03-11 08:46:54 51°10.028 2°40.139 17.3 338 9.2 101440 90
2003-03-11 08:46:59 51°10.011 2°40.124 16.4 337 9.2 101440 90
2003-03-11 08:47:04 51°9.995 2°40.108 17.3 337 9.2 101450 91
2003-03-11 08:47:08 51°9.982 2°40.096 16.5 338 9.2 101450 91
2003-03-11 08:47:14 51°9.962 2°40.077 16.1 341 9.2 101450 91
2003-03-11 08:47:19 51°9.946 2°40.061 16.4 340 9.2 101450 91
2003-03-11 08:47:24 51°9.93 2°40.046 17 337 9.2 101450 91
2003-03-11 08:47:28 51°9.917 2°40.033 16.2 342 9.2 101450 91
2003-03-11 08:47:34 51°9.897 2°40.014 16.8 339 9.2 101440 91
2003-03-11 08:47:39 51°9.881 2°39.999 17.2 341 9.2 101440 91
2003-03-11 08:47:44 51°9.865 2°39.983 16.4 342 9.2 101450 91
2003-03-11 08:47:48 51°9.852 2°39.971 17.1 346 9.2 101450 91
2003-03-11 08:47:54 51°9.834 2°39.95 16.3 343 9.2 101440 91
2003-03-11 08:47:59 51°9.819 2°39.93 16.2 351 9.2 101440 91
2003-03-11 08:48:04 51°9.805 2°39.909 15.9 349 9.2 101450 91
2003-03-11 08:48:08 51°9.795 2°39.891 16.3 353 9.2 101450 91
2003-03-11 08:48:14 51°9.781 2°39.863 16.4 353 9.2 101450 91
2003-03-11 08:48:19 51°9.771 2°39.837 16.9 1 9.2 101450 91
2003-03-11 08:48:24 51°9.762 2°39.81 17.2 3 9.2 101460 91
2003-03-11 08:48:28 51°9.756 2°39.788 16.5 7 9.2 101460 91
2003-03-11 08:48:34 51°9.749 2°39.754 15.7 7 9.2 101470 91
2003-03-11 08:48:39 51°9.745 2°39.724 16.4 12 9.2 101470 91
2003-03-11 08:48:44 51°9.742 2°39.695 16.7 13 9.2 101460 91
2003-03-11 08:48:48 51°9.741 2°39.671 16 19 9.2 101460 91
2003-03-11 08:48:54 51°9.741 2°39.635 16.4 15 9.2 101450 91
2003-03-11 08:48:59 51°9.742 2°39.604 15.7 22 9.2 101450 91
2003-03-11 08:49:04 51°9.743 2°39.574 15.3 19 9.3 101440 91
2003-03-11 08:49:09 51°9.745 2°39.543 15.6 20 9.3 101440 91
2003-03-11 08:49:14 51°9.748 2°39.513 14.6 25 9.3 101440 91
2003-03-11 08:49:19 51°9.752 2°39.483 15.5 27 9.3 101440 91
2003-03-11 08:49:24 51°9.757 2°39.454 14.8 29 9.3 101440 91
2003-03-11 08:49:28 51°9.762 2°39.43 13.9 30 9.3 101440 91
2003-03-11 08:49:34 51°9.769 2°39.394 15.1 33 9.3 101440 90
2003-03-11 08:49:39 51°9.776 2°39.366 14.6 30 9.3 101440 90
2003-03-11 08:49:44 51°9.783 2°39.338 15.5 29 9.3 101430 90
2003-03-11 08:49:48 51°9.788 2°39.315 14.3 35 9.3 101430 90
2003-03-11 08:49:54 51°9.798 2°39.282 13.9 32 9.3 101440 90
2003-03-11 08:49:59 51°9.807 2°39.255 14.3 36 9.3 101440 90
2003-03-11 08:50:04 51°9.816 2°39.228 14.5 36 9.3 101440 90
2003-03-11 08:50:09 51°9.826 2°39.202 13.5 36 9.3 101440 90
2003-03-11 08:50:14 51°9.836 2°39.175 14.4 33 9.3 101440 90
2003-03-11 08:50:19 51°9.846 2°39.148 13.9 36 9.3 101440 90
2003-03-11 08:50:24 51°9.856 2°39.122 13.4 35 9.3 101430 90
2003-03-11 08:50:28 51°9.863 2°39.101 13.7 34 9.3 101430 90
2003-03-11 08:50:34 51°9.874 2°39.069 14.7 35 9.3 101430 90
2003-03-11 08:50:38 51°9.881 2°39.048 13.5 36 9.3 101430 90
2003-03-11 08:50:44 51°9.892 2°39.016 13.7 34 9.3 101430 90
2003-03-11 08:50:48 51°9.9 2°38.995 13.5 36 9.3 101430 90
2003-03-11 08:50:54 51°9.912 2°38.963 14.1 36 9.3 101440 90
2003-03-11 08:50:59 51°9.922 2°38.937 13.8 35 9.3 101440 90
2003-03-11 08:51:04 51°9.933 2°38.911 14.4 34 9.2 101430 90
2003-03-11 08:51:08 51°9.941 2°38.89 13.6 37 9.2 101430 90
2003-03-11 08:51:13 51°9.951 2°38.863 12.8 33 9.2 101420 90
2003-03-11 08:51:19 51°9.963 2°38.831 13.4 34 9.2 101420 90
2003-03-11 08:51:24 51°9.973 2°38.805 14 31 9.2 101440 90
2003-03-11 08:51:29 51°9.983 2°38.778 13.1 34 9.2 101440 90
2003-03-11 08:51:34 51°9.994 2°38.751 13 35 9.2 101450 90
2003-03-11 08:51:39 51°10.004 2°38.724 13.8 35 9.2 101450 90
2003-03-11 08:51:44 51°10.013 2°38.697 13.1 35 9.2 101440 90
2003-03-11 08:51:49 51°10.022 2°38.669 14 34 9.2 101440 90
2003-03-11 08:51:54 51°10.03 2°38.642 13.7 35 9.2 101440 90
2003-03-11 08:51:59 51°10.04 2°38.616 13.1 33 9.2 101440 90
2003-03-11 08:52:04 51°10.05 2°38.589 14.1 35 9.2 101440 90
2003-03-11 08:52:08 51°10.058 2°38.568 13.1 34 9.2 101440 90
2003-03-11 08:52:14 51°10.07 2°38.535 13.2 34 9.2 101440 90
2003-03-11 08:52:19 51°10.08 2°38.509 13.4 35 9.2 101440 90
2003-03-11 08:52:24 51°10.093 2°38.485 13.4 34 9.2 101450 90
2003-03-11 08:52:28 51°10.103 2°38.466 13.4 32 9.2 101450 90
2003-03-11 08:52:34 51°10.117 2°38.436 12.7 31 9.2 101440 90
2003-03-11 08:52:39 51°10.127 2°38.41 13.6 39 9.2 101440 90
2003-03-11 08:52:44 51°10.137 2°38.384 12.7 34 9.2 101430 90
2003-03-11 08:52:48 51°10.148 2°38.362 13 37 9.2 101430 90
2003-03-11 08:52:54 51°10.16 2°38.331 13.2 35 9.2 101440 90
2003-03-11 08:52:59 51°10.169 2°38.305 13.3 34 9.2 101440 90
2003-03-11 08:53:04 51°10.179 2°38.279 13.7 32 9.1 101440 90
2003-03-11 08:53:08 51°10.187 2°38.258 13.3 34 9.1 101440 90
2003-03-11 08:53:14 51°10.2 2°38.226 12.9 35 9.1 101440 90
2003-03-11 08:53:19 51°10.21 2°38.199 13.2 28 9.1 101440 90
2003-03-11 08:53:24 51°10.218 2°38.171 13 24 9.1 101440 90
2003-03-11 08:53:28 51°10.223 2°38.148 14.2 27 9.1 101440 90
2003-03-11 08:53:34 51°10.229 2°38.112 13.6 23 9.1 101440 90
2003-03-11 08:53:39 51°10.233 2°38.082 14.6 18 9.1 101440 90
2003-03-11 08:53:44 51°10.236 2°38.053 14.1 19 9.1 101430 90
2003-03-11 08:53:48 51°10.236 2°38.029 14.8 12 9.1 101430 90
2003-03-11 08:53:54 51°10.235 2°37.993 14.7 13 9.1 101440 90
2003-03-11 08:53:59 51°10.234 2°37.964 15 10 9.1 101440 90
2003-03-11 08:54:04 51°10.23 2°37.935 15.5 6 9.1 101440 90
2003-03-11 08:54:09 51°10.226 2°37.906 15.4 2 9.1 101440 90
2003-03-11 08:54:14 51°10.219 2°37.878 16.8 1 9.1 101450 90
2003-03-11 08:54:19 51°10.212 2°37.85 15.7 2 9.1 101450 90
2003-03-11 08:54:24 51°10.205 2°37.822 15 4 9.1 101450 90
2003-03-11 08:54:29 51°10.197 2°37.795 15.3 359 9.1 101450 90
2003-03-11 08:54:34 51°10.188 2°37.768 15.6 1 9.1 101450 90
2003-03-11 08:54:39 51°10.178 2°37.743 16.8 354 9.1 101450 90
2003-03-11 08:54:44 51°10.167 2°37.719 16.7 354 9.1 101460 90
2003-03-11 08:54:48 51°10.158 2°37.7 16.2 352 9.1 101460 90
2003-03-11 08:54:54 51°10.143 2°37.672 15.8 354 9.1 101450 90
2003-03-11 08:54:59 51°10.131 2°37.649 16.7 353 9.1 101450 90
2003-03-11 08:55:04 51°10.118 2°37.628 15.9 351 9.1 101450 90
2003-03-11 08:55:08 51°10.107 2°37.61 16.7 352 9.1 101450 90
2003-03-11 08:55:14 51°10.091 2°37.584 16.5 350 9.1 101460 90
2003-03-11 08:55:19 51°10.078 2°37.563 16.9 349 9.1 101460 90
2003-03-11 08:55:24 51°10.064 2°37.542 16.1 349 9.1 101460 90
2003-03-11 08:55:28 51°10.053 2°37.525 16.8 347 9.1 101460 90
2003-03-11 08:55:34 51°10.036 2°37.5 17.1 350 9.1 101460 90
2003-03-11 08:55:39 51°10.022 2°37.479 16.3 351 9.1 101460 90
2003-03-11 08:55:44 51°10.008 2°37.458 16 348 9.1 101460 91
2003-03-11 08:55:48 51°9.997 2°37.441 16 349 9.1 101460 91
2003-03-11 08:55:54 51°9.981 2°37.416 15.8 347 9.1 101460 91
2003-03-11 08:55:59 51°9.967 2°37.395 15 347 9.1 101460 91
2003-03-11 08:56:04 51°9.953 2°37.374 15.3 350 9.1 101460 91
2003-03-11 08:56:09 51°9.939 2°37.353 15 346 9.1 101460 91
2003-03-11 08:56:14 51°9.926 2°37.332 15.4 354 9.2 101460 91
2003-03-11 08:56:19 51°9.912 2°37.311 16.3 348 9.2 101460 91
2003-03-11 08:56:24 51°9.898 2°37.29 16 350 9.1 101450 91
2003-03-11 08:56:28 51°9.887 2°37.273 15.9 349 9.1 101450 91
2003-03-11 08:56:34 51°9.871 2°37.248 15.7 350 9.1 101450 90
2003-03-11 08:56:39 51°9.857 2°37.227 15.8 348 9.1 101450 90
2003-03-11 08:56:44 51°9.843 2°37.206 16.6 347 9.1 101460 90
2003-03-11 08:56:48 51°9.833 2°37.188 16.4 348 9.1 101460 90
2003-03-11 08:56:54 51°9.816 2°37.163 16.6 348 9.2 101460 91
2003-03-11 08:56:59 51°9.802 2°37.142 16.1 348 9.2 101460 91
2003-03-11 08:57:04 51°9.789 2°37.121 15.2 350 9.1 101460 91
2003-03-11 08:57:08 51°9.778 2°37.104 16 347 9.1 101460 91
2003-03-11 08:57:14 51°9.761 2°37.078 16.1 349 9.1 101460 91
2003-03-11 08:57:19 51°9.747 2°37.057 15.6 350 9.1 101460 91
2003-03-11 08:57:24 51°9.733 2°37.036 15.4 349 9.2 101460 91
2003-03-11 08:57:28 51°9.722 2°37.019 16 349 9.2 101460 91
2003-03-11 08:57:34 51°9.706 2°36.993 15.8 350 9.2 101450 91
2003-03-11 08:57:39 51°9.692 2°36.973 15.5 350 9.2 101450 91
2003-03-11 08:57:44 51°9.679 2°36.951 15.9 350 9.2 101460 91
2003-03-11 08:57:49 51°9.665 2°36.93 15.9 351 9.2 101460 91
2003-03-11 08:57:54 51°9.651 2°36.908 16.1 348 9.2 101460 90
2003-03-11 08:57:59 51°9.638 2°36.887 15.8 350 9.2 101460 90
2003-03-11 08:58:04 51°9.624 2°36.866 16.4 351 9.2 101460 90
2003-03-11 08:58:08 51°9.613 2°36.849 15.9 349 9.2 101460 90
2003-03-11 08:58:14 51°9.597 2°36.823 16 350 9.2 101460 90
2003-03-11 08:58:19 51°9.583 2°36.801 16.4 348 9.2 101460 90
2003-03-11 08:58:24 51°9.569 2°36.78 16 347 9.1 101460 90
2003-03-11 08:58:28 51°9.559 2°36.763 16.6 346 9.1 101460 90
2003-03-11 08:58:34 51°9.543 2°36.737 16.5 350 9.1 101460 90
2003-03-11 08:58:38 51°9.532 2°36.719 16.3 349 9.1 101460 90
2003-03-11 08:58:44 51°9.515 2°36.694 15.4 350 9.2 101460 90
2003-03-11 08:58:48 51°9.504 2°36.676 15.4 350 9.2 101460 90
2003-03-11 08:58:54 51°9.488 2°36.65 17 348 9.1 101460 90
2003-03-11 08:58:59 51°9.474 2°36.629 14.9 348 9.1 101460 90
2003-03-11 08:59:04 51°9.461 2°36.607 16.3 349 9.2 101460 90
2003-03-11 08:59:09 51°9.447 2°36.586 16 350 9.2 101460 90
2003-03-11 08:59:14 51°9.433 2°36.564 16 348 9.2 101460 90
2003-03-11 08:59:18 51°9.422 2°36.547 16 350 9.2 101460 90
2003-03-11 08:59:24 51°9.405 2°36.521 16.1 347 9.2 101460 91
2003-03-11 08:59:28 51°9.394 2°36.504 16 351 9.2 101460 91
2003-03-11 08:59:34 51°9.378 2°36.478 15.1 353 9.2 101460 90
2003-03-11 08:59:39 51°9.364 2°36.456 16.7 350 9.2 101460 90
2003-03-11 08:59:44 51°9.351 2°36.435 16.2 350 9.2 101460 91
2003-03-11 08:59:49 51°9.337 2°36.413 17 348 9.2 101460 91
2003-03-11 08:59:54 51°9.323 2°36.391 16.5 351 9.2 101460 91
2003-03-11 08:59:59 51°9.309 2°36.37 16.3 350 9.2 101460 91
2003-03-11 09:00:04 51°9.295 2°36.348 16.1 351 9.2 101460 91
2003-03-11 09:00:08 51°9.284 2°36.33 17.1 352 9.2 101460 91
2003-03-11 09:00:14 51°9.267 2°36.305 15.9 348 9.2 101450 91
2003-03-11 09:00:19 51°9.253 2°36.282 16.1 347 9.2 101450 91
2003-03-11 09:00:24 51°9.239 2°36.259 16.8 345 9.2 101460 91
2003-03-11 09:00:28 51°9.228 2°36.241 15.3 348 9.2 101460 91
2003-03-11 09:00:34 51°9.211 2°36.215 16.2 346 9.2 101460 91
2003-03-11 09:00:39 51°9.198 2°36.193 15.3 348 9.2 101460 91
2003-03-11 09:00:43 51°9.187 2°36.175 16.2 348 9.2 101450 91
2003-03-11 09:00:48 51°9.173 2°36.153 16.4 345 9.2 101450 91
2003-03-11 09:00:54 51°9.157 2°36.126 16.7 348 9.2 101460 91
2003-03-11 09:00:58 51°9.146 2°36.108 17.1 355 9.2 101460 91
2003-03-11 09:01:04 51°9.131 2°36.081 17 352 9.2 101460 90
2003-03-11 09:01:08 51°9.122 2°36.061 16.6 357 9.2 101460 90
2003-03-11 09:01:14 51°9.11 2°36.03 16.7 359 9.2 101460 90
2003-03-11 09:01:18 51°9.103 2°36.008 15.9 3 9.2 101460 90
2003-03-11 09:01:24 51°9.095 2°35.975 16.7 8 9.2 101460 90
2003-03-11 09:01:28 51°9.09 2°35.952 16.5 11 9.2 101460 90
2003-03-11 09:01:34 51°9.085 2°35.917 17 12 9.2 101460 90
2003-03-11 09:01:39 51°9.083 2°35.887 15.9 16 9.2 101460 90
2003-03-11 09:01:44 51°9.083 2°35.857 15.4 19 9.3 101450 90
2003-03-11 09:01:48 51°9.084 2°35.833 15 22 9.3 101450 90
2003-03-11 09:01:54 51°9.087 2°35.797 15.1 26 9.3 101440 90
2003-03-11 09:01:59 51°9.092 2°35.768 14.8 31 9.3 101440 90
2003-03-11 09:02:04 51°9.099 2°35.739 15.1 34 9.3 101440 90
2003-03-11 09:02:08 51°9.106 2°35.718 13.7 41 9.3 101440 90
2003-03-11 09:02:13 51°9.115 2°35.691 12.5 38 9.2 101420 90
2003-03-11 09:02:19 51°9.129 2°35.662 13.1 132 9.2 101420 90
2003-03-11 09:02:24 51°9.142 2°35.639 12.9 45 9.3 101430 90
2003-03-11 09:02:28 51°9.153 2°35.623 11.9 49 9.3 101430 90
2003-03-11 09:02:34 51°9.171 2°35.601 11.7 52 9.3 101430 90
2003-03-11 09:02:39 51°9.187 2°35.585 10.3 56 9.3 101430 90
2003-03-11 09:02:44 51°9.204 2°35.572 10.1 57 9.2 101430 90
2003-03-11 09:02:48 51°9.218 2°35.563 9 59 9.2 101430 90
2003-03-11 09:02:54 51°9.239 2°35.552 9 65 9.3 101430 90
2003-03-11 09:02:59 51°9.258 2°35.546 9.9 68 9.3 101430 90
2003-03-11 09:03:04 51°9.276 2°35.541 9.3 61 9.3 101430 90
2003-03-11 09:03:08 51°9.291 2°35.536 9.6 65 9.3 101430 90
2003-03-11 09:03:14 51°9.314 2°35.529 9.4 61 9.2 101440 90